sensor_id;sensor_type;location;lat;lon;timestamp;pressure;altitude;pressure_sealevel;temperature;humidity
7668;BME280;3876;42.204;24.686;2023-02-03T00:01:34;99667.00;;;4.40;97.23
7668;BME280;3876;42.204;24.686;2023-02-03T00:04:01;99657.72;;;4.34;98.03
7668;BME280;3876;42.204;24.686;2023-02-03T00:06:28;99649.25;;;4.31;98.67
7668;BME280;3876;42.204;24.686;2023-02-03T00:08:57;99656.00;;;4.38;98.66
7668;BME280;3876;42.204;24.686;2023-02-03T00:11:26;99657.69;;;4.43;98.34
7668;BME280;3876;42.204;24.686;2023-02-03T00:13:55;99653.47;;;4.47;98.64
7668;BME280;3876;42.204;24.686;2023-02-03T00:16:23;99677.16;;;4.49;99.30
7668;BME280;3876;42.204;24.686;2023-02-03T00:18:50;99675.47;;;4.43;99.08
7668;BME280;3876;42.204;24.686;2023-02-03T00:21:17;99663.63;;;4.47;98.54
7668;BME280;3876;42.204;24.686;2023-02-03T00:23:44;99656.88;;;4.46;98.56
7668;BME280;3876;42.204;24.686;2023-02-03T00:26:12;99668.69;;;4.41;98.47
7668;BME280;3876;42.204;24.686;2023-02-03T00:28:39;99664.47;;;4.38;98.14
7668;BME280;3876;42.204;24.686;2023-02-03T00:31:14;99660.25;;;4.39;98.09
7668;BME280;3876;42.204;24.686;2023-02-03T00:33:42;99662.78;;;4.48;98.71
7668;BME280;3876;42.204;24.686;2023-02-03T00:36:11;99660.22;;;4.48;98.55
7668;BME280;3876;42.204;24.686;2023-02-03T00:38:37;99661.09;;;4.48;98.71
7668;BME280;3876;42.204;24.686;2023-02-03T00:41:05;99674.59;;;4.50;98.51
7668;BME280;3876;42.204;24.686;2023-02-03T00:43:32;99670.38;;;4.51;98.47
7668;BME280;3876;42.204;24.686;2023-02-03T00:45:58;99673.75;;;4.47;98.65
7668;BME280;3876;42.204;24.686;2023-02-03T00:48:25;99675.47;;;4.42;98.65
7668;BME280;3876;42.204;24.686;2023-02-03T00:50:53;99675.47;;;4.45;98.19
7668;BME280;3876;42.204;24.686;2023-02-03T00:53:20;99678.00;;;4.43;97.89
7668;BME280;3876;42.204;24.686;2023-02-03T00:55:47;99678.00;;;4.51;97.27
7668;BME280;3876;42.204;24.686;2023-02-03T00:58:14;99687.31;;;4.55;97.00
7668;BME280;3876;42.204;24.686;2023-02-03T01:00:40;99709.28;;;4.59;97.38
7668;BME280;3876;42.204;24.686;2023-02-03T01:03:07;99706.78;;;4.62;96.84
7668;BME280;3876;42.204;24.686;2023-02-03T01:05:34;99704.22;;;4.71;96.41
7668;BME280;3876;42.204;24.686;2023-02-03T01:08:03;99710.97;;;4.73;96.11
7668;BME280;3876;42.204;24.686;2023-02-03T01:10:30;99710.97;;;4.78;95.83
7668;BME280;3876;42.204;24.686;2023-02-03T01:12:57;99701.66;;;4.80;96.02
7668;BME280;3876;42.204;24.686;2023-02-03T01:15:24;99707.53;;;4.85;95.90
7668;BME280;3876;42.204;24.686;2023-02-03T01:17:51;99699.09;;;4.86;96.02
7668;BME280;3876;42.204;24.686;2023-02-03T01:20:18;99688.09;;;4.80;96.11
7668;BME280;3876;42.204;24.686;2023-02-03T01:22:46;99696.56;;;4.78;96.33
7668;BME280;3876;42.204;24.686;2023-02-03T01:25:14;99706.72;;;4.75;96.09
7668;BME280;3876;42.204;24.686;2023-02-03T01:27:41;99703.34;;;4.73;95.99
7668;BME280;3876;42.204;24.686;2023-02-03T01:30:09;99709.28;;;4.74;95.70
7668;BME280;3876;42.204;24.686;2023-02-03T01:32:36;99707.59;;;4.70;96.13
7668;BME280;3876;42.204;24.686;2023-02-03T01:35:03;99713.50;;;4.73;96.13
7668;BME280;3876;42.204;24.686;2023-02-03T01:37:30;99710.97;;;4.66;96.61
7668;BME280;3876;42.204;24.686;2023-02-03T01:39:56;99722.81;;;4.70;96.30
7668;BME280;3876;42.204;24.686;2023-02-03T01:42:25;99729.59;;;4.68;96.35
7668;BME280;3876;42.204;24.686;2023-02-03T01:44:51;99722.00;;;4.65;96.77
7668;BME280;3876;42.204;24.686;2023-02-03T01:47:26;99717.75;;;4.61;97.14
7668;BME280;3876;42.204;24.686;2023-02-03T01:50:03;99711.00;;;4.64;96.46
7668;BME280;3876;42.204;24.686;2023-02-03T01:52:32;99699.16;;;4.62;96.86
7668;BME280;3876;42.204;24.686;2023-02-03T01:55:02;99707.59;;;4.67;96.86
7668;BME280;3876;42.204;24.686;2023-02-03T01:57:34;99710.97;;;4.69;96.91
7668;BME280;3876;42.204;24.686;2023-02-03T02:00:04;99718.59;;;4.69;96.72
7668;BME280;3876;42.204;24.686;2023-02-03T02:02:32;99716.91;;;4.66;96.57
7668;BME280;3876;42.204;24.686;2023-02-03T02:05:03;99726.22;;;4.66;95.79
7668;BME280;3876;42.204;24.686;2023-02-03T02:07:31;99728.78;;;4.61;95.91
7668;BME280;3876;42.204;24.686;2023-02-03T02:09:59;99728.75;;;4.63;96.04
7668;BME280;3876;42.204;24.686;2023-02-03T02:12:26;99733.00;;;4.64;95.89
7668;BME280;3876;42.204;24.686;2023-02-03T02:14:56;99733.00;;;4.64;96.27
7668;BME280;3876;42.204;24.686;2023-02-03T02:17:43;99744.00;;;4.64;96.72
7668;BME280;3876;42.204;24.686;2023-02-03T02:23:48;99741.44;;;4.66;97.12
7668;BME280;3876;42.204;24.686;2023-02-03T02:27:02;99732.97;;;4.67;97.25
7668;BME280;3876;42.204;24.686;2023-02-03T02:32:43;99745.69;;;4.67;98.18
7668;BME280;3876;42.204;24.686;2023-02-03T02:35:18;99733.00;;;4.64;98.34
7668;BME280;3876;42.204;24.686;2023-02-03T02:37:51;99759.22;;;4.70;98.14
7668;BME280;3876;42.204;24.686;2023-02-03T02:40:24;99759.22;;;4.70;98.60
7668;BME280;3876;42.204;24.686;2023-02-03T02:43:00;99749.06;;;4.57;99.56
7668;BME280;3876;42.204;24.686;2023-02-03T02:45:29;99758.38;;;4.64;99.70
7668;BME280;3876;42.204;24.686;2023-02-03T02:48:04;99760.06;;;4.68;100.00
7668;BME280;3876;42.204;24.686;2023-02-03T02:50:38;99773.59;;;4.67;100.00
7668;BME280;3876;42.204;24.686;2023-02-03T02:53:07;99774.44;;;4.63;100.00
7668;BME280;3876;42.204;24.686;2023-02-03T02:55:37;99770.22;;;4.59;100.00
7668;BME280;3876;42.204;24.686;2023-02-03T02:58:08;99773.59;;;4.67;100.00
7668;BME280;3876;42.204;24.686;2023-02-03T03:00:37;99778.69;;;4.67;100.00
7668;BME280;3876;42.204;24.686;2023-02-03T03:03:17;99787.13;;;4.69;100.00
7668;BME280;3876;42.204;24.686;2023-02-03T03:05:49;99763.47;;;4.55;100.00
7668;BME280;3876;42.204;24.686;2023-02-03T03:08:18;99784.63;;;4.61;100.00
7668;BME280;3876;42.204;24.686;2023-02-03T03:10:47;99785.47;;;4.68;100.00
7668;BME280;3876;42.204;24.686;2023-02-03T03:13:19;99787.16;;;4.66;100.00
7668;BME280;3876;42.204;24.686;2023-02-03T03:15:49;99782.94;;;4.68;100.00
7668;BME280;3876;42.204;24.686;2023-02-03T03:18:21;99785.47;;;4.68;100.00
7668;BME280;3876;42.204;24.686;2023-02-03T03:20:50;99793.94;;;4.67;100.00
7668;BME280;3876;42.204;24.686;2023-02-03T03:23:21;99782.06;;;4.63;100.00
7668;BME280;3876;42.204;24.686;2023-02-03T03:25:53;99786.28;;;4.59;100.00
7668;BME280;3876;42.204;24.686;2023-02-03T03:28:28;99799.00;;;4.58;100.00
7668;BME280;3876;42.204;24.686;2023-02-03T03:30:57;99798.16;;;4.50;100.00
7668;BME280;3876;42.204;24.686;2023-02-03T03:33:25;99799.84;;;4.46;100.00
7668;BME280;3876;42.204;24.686;2023-02-03T03:35:56;99803.22;;;4.36;100.00
7668;BME280;3876;42.204;24.686;2023-02-03T03:38:29;99802.38;;;4.33;100.00
7668;BME280;3876;42.204;24.686;2023-02-03T03:41:02;99799.84;;;4.33;100.00
7668;BME280;3876;42.204;24.686;2023-02-03T03:43:34;99797.28;;;4.27;100.00
7668;BME280;3876;42.204;24.686;2023-02-03T03:46:09;99794.75;;;4.22;100.00
7668;BME280;3876;42.204;24.686;2023-02-03T03:48:42;99793.91;;;4.21;100.00
7668;BME280;3876;42.204;24.686;2023-02-03T03:51:15;99794.72;;;4.14;100.00
7668;BME280;3876;42.204;24.686;2023-02-03T03:53:46;99794.72;;;4.14;100.00
7668;BME280;3876;42.204;24.686;2023-02-03T03:56:18;99788.81;;;4.15;100.00
7668;BME280;3876;42.204;24.686;2023-02-03T03:58:47;99789.66;;;4.17;100.00
7668;BME280;3876;42.204;24.686;2023-02-03T04:01:15;99788.81;;;4.15;100.00
7668;BME280;3876;42.204;24.686;2023-02-03T04:03:47;99781.19;;;4.15;100.00
7668;BME280;3876;42.204;24.686;2023-02-03T04:06:14;99788.81;;;4.18;100.00
7668;BME280;3876;42.204;24.686;2023-02-03T04:08:41;99809.97;;;4.22;100.00
7668;BME280;3876;42.204;24.686;2023-02-03T04:11:08;99814.19;;;4.28;100.00
7668;BME280;3876;42.204;24.686;2023-02-03T04:13:35;99831.13;;;4.30;100.00
7668;BME280;3876;42.204;24.686;2023-02-03T04:16:01;99834.50;;;4.37;100.00
7668;BME280;3876;42.204;24.686;2023-02-03T04:18:28;99843.00;;;4.39;99.96
7668;BME280;3876;42.204;24.686;2023-02-03T04:20:56;99850.59;;;4.39;99.72
7668;BME280;3876;42.204;24.686;2023-02-03T04:23:23;99837.91;;;4.36;99.70
7668;BME280;3876;42.204;24.686;2023-02-03T04:25:50;99853.16;;;4.45;100.00
7668;BME280;3876;42.204;24.686;2023-02-03T04:28:16;99849.75;;;4.40;99.92
7668;BME280;3876;42.204;24.686;2023-02-03T04:30:43;99848.94;;;4.42;100.00
7668;BME280;3876;42.204;24.686;2023-02-03T04:33:10;99857.38;;;4.50;99.89
7668;BME280;3876;42.204;24.686;2023-02-03T04:35:37;99859.09;;;4.48;100.00
7668;BME280;3876;42.204;24.686;2023-02-03T04:38:05;99838.78;;;4.45;99.68
7668;BME280;3876;42.204;24.686;2023-02-03T04:40:32;99841.28;;;4.41;99.87
7668;BME280;3876;42.204;24.686;2023-02-03T04:43:05;99829.44;;;4.35;99.77
7668;BME280;3876;42.204;24.686;2023-02-03T04:45:32;99831.16;;;4.36;99.92
7668;BME280;3876;42.204;24.686;2023-02-03T04:47:58;99828.59;;;4.29;99.71
7668;BME280;3876;42.204;24.686;2023-02-03T04:50:25;99827.72;;;4.27;99.99
7668;BME280;3876;42.204;24.686;2023-02-03T04:52:52;99831.97;;;4.20;100.00
7668;BME280;3876;42.204;24.686;2023-02-03T04:55:20;99838.72;;;4.16;100.00
7668;BME280;3876;42.204;24.686;2023-02-03T04:57:47;99839.53;;;4.09;100.00
7668;BME280;3876;42.204;24.686;2023-02-03T05:00:14;99853.06;;;4.08;100.00
7668;BME280;3876;42.204;24.686;2023-02-03T05:02:41;99859.84;;;4.09;99.92
7668;BME280;3876;42.204;24.686;2023-02-03T05:05:08;99856.44;;;4.10;99.28
7668;BME280;3876;42.204;24.686;2023-02-03T05:07:34;99865.78;;;4.16;98.74
7668;BME280;3876;42.204;24.686;2023-02-03T05:10:01;99852.22;;;4.06;98.30
7668;BME280;3876;42.204;24.686;2023-02-03T05:12:30;99863.22;;;4.08;98.71
7668;BME280;3876;42.204;24.686;2023-02-03T05:14:56;99864.91;;;4.09;98.36
7668;BME280;3876;42.204;24.686;2023-02-03T05:17:23;99869.13;;;4.07;97.96
7668;BME280;3876;42.204;24.686;2023-02-03T05:19:50;99858.97;;;4.10;97.74
7668;BME280;3876;42.204;24.686;2023-02-03T05:22:17;99860.66;;;4.08;97.89
7668;BME280;3876;42.204;24.686;2023-02-03T05:24:43;99858.97;;;4.06;97.45
7668;BME280;3876;42.204;24.686;2023-02-03T05:27:10;99844.59;;;3.97;97.15
7668;BME280;3876;42.204;24.686;2023-02-03T05:29:38;99856.41;;;4.04;97.51
7668;BME280;3876;42.204;24.686;2023-02-03T05:32:05;99865.72;;;4.02;97.24
7668;BME280;3876;42.204;24.686;2023-02-03T05:34:32;99863.19;;;4.05;96.89
7668;BME280;3876;42.204;24.686;2023-02-03T05:36:59;99880.09;;;4.00;97.05
7668;BME280;3876;42.204;24.686;2023-02-03T05:39:26;99870.78;;;3.96;97.08
7668;BME280;3876;42.204;24.686;2023-02-03T05:41:53;99873.31;;;3.99;97.04
7668;BME280;3876;42.204;24.686;2023-02-03T05:44:19;99880.91;;;3.92;97.25
7668;BME280;3876;42.204;24.686;2023-02-03T05:46:47;99885.09;;;3.88;97.42
7668;BME280;3876;42.204;24.686;2023-02-03T05:49:14;99880.03;;;3.91;97.03
7668;BME280;3876;42.204;24.686;2023-02-03T05:51:41;99886.00;;;3.98;96.12
7668;BME280;3876;42.204;24.686;2023-02-03T05:54:08;99886.00;;;3.96;96.08
7668;BME280;3876;42.204;24.686;2023-02-03T05:56:35;99890.25;;;4.00;96.28
7668;BME280;3876;42.204;24.686;2023-02-03T05:59:03;99885.16;;;3.97;96.00
7668;BME280;3876;42.204;24.686;2023-02-03T06:01:30;99897.00;;;4.01;95.77
7668;BME280;3876;42.204;24.686;2023-02-03T06:03:58;99903.75;;;3.99;95.75
7668;BME280;3876;42.204;24.686;2023-02-03T06:06:25;99907.16;;;4.03;95.70
7668;BME280;3876;42.204;24.686;2023-02-03T06:08:58;99910.56;;;4.03;95.82
7668;BME280;3876;42.204;24.686;2023-02-03T06:11:25;99907.16;;;4.07;95.92
7668;BME280;3876;42.204;24.686;2023-02-03T06:13:53;99919.88;;;4.09;95.60
7668;BME280;3876;42.204;24.686;2023-02-03T06:16:20;99919.88;;;4.12;95.71
7668;BME280;3876;42.204;24.686;2023-02-03T06:18:49;99929.19;;;4.17;95.21
7668;BME280;3876;42.204;24.686;2023-02-03T06:21:17;99927.53;;;4.19;94.96
7668;BME280;3876;42.204;24.686;2023-02-03T06:23:44;99925.84;;;4.28;94.35
7668;BME280;3876;42.204;24.686;2023-02-03T06:26:12;99933.50;;;4.34;93.28
7668;BME280;3876;42.204;24.686;2023-02-03T06:28:39;99915.72;;;4.31;93.33
7668;BME280;3876;42.204;24.686;2023-02-03T06:31:06;99944.53;;;4.42;93.70
7668;BME280;3876;42.204;24.686;2023-02-03T06:33:33;99953.00;;;4.47;93.18
7668;BME280;3876;42.204;24.686;2023-02-03T06:36:00;99961.50;;;4.52;92.39
7668;BME280;3876;42.204;24.686;2023-02-03T06:38:28;99963.22;;;4.62;92.36
7668;BME280;3876;42.204;24.686;2023-02-03T06:40:54;99972.53;;;4.64;91.91
7668;BME280;3876;42.204;24.686;2023-02-03T06:43:21;99963.22;;;4.68;91.60
7668;BME280;3876;42.204;24.686;2023-02-03T06:45:48;99975.91;;;4.72;91.27
7668;BME280;3876;42.204;24.686;2023-02-03T06:48:15;99970.84;;;4.72;91.55
7668;BME280;3876;42.204;24.686;2023-02-03T06:50:42;99980.19;;;4.78;90.77
7668;BME280;3876;42.204;24.686;2023-02-03T06:53:08;99956.47;;;4.76;90.74
7668;BME280;3876;42.204;24.686;2023-02-03T06:55:36;99977.66;;;4.92;90.78
7668;BME280;3876;42.204;24.686;2023-02-03T06:58:03;99986.16;;;5.00;91.50
7668;BME280;3876;42.204;24.686;2023-02-03T07:00:30;100002.25;;;5.15;91.83
7668;BME280;3876;42.204;24.686;2023-02-03T07:02:57;99996.34;;;5.35;91.78
7668;BME280;3876;42.204;24.686;2023-02-03T07:05:26;99992.94;;;5.48;91.67
7668;BME280;3876;42.204;24.686;2023-02-03T07:07:53;99986.16;;;5.65;90.62
7668;BME280;3876;42.204;24.686;2023-02-03T07:10:20;99997.19;;;5.77;89.87
7668;BME280;3876;42.204;24.686;2023-02-03T07:12:48;99995.50;;;5.90;88.91
7668;BME280;3876;42.204;24.686;2023-02-03T07:15:16;99998.03;;;5.98;88.15
7668;BME280;3876;42.204;24.686;2023-02-03T07:17:43;99986.13;;;6.03;87.17
7668;BME280;3876;42.204;24.686;2023-02-03T07:20:12;99991.19;;;6.04;86.94
7668;BME280;3876;42.204;24.686;2023-02-03T07:22:39;99989.53;;;6.03;86.89
7668;BME280;3876;42.204;24.686;2023-02-03T07:25:08;99994.59;;;6.06;86.90
7668;BME280;3876;42.204;24.686;2023-02-03T07:27:35;100008.16;;;6.05;86.83
7668;BME280;3876;42.204;24.686;2023-02-03T07:30:03;100009.00;;;6.04;86.82
7668;BME280;3876;42.204;24.686;2023-02-03T07:32:30;100005.66;;;6.01;86.45
7668;BME280;3876;42.204;24.686;2023-02-03T07:34:57;100009.03;;;5.92;86.68
7668;BME280;3876;42.204;24.686;2023-02-03T07:37:25;100002.25;;;5.88;85.95
7668;BME280;3876;42.204;24.686;2023-02-03T07:39:52;100003.97;;;5.86;86.78
7668;BME280;3876;42.204;24.686;2023-02-03T07:42:19;100006.50;;;5.97;87.75
7668;BME280;3876;42.204;24.686;2023-02-03T07:44:46;100006.47;;;6.12;86.23
7668;BME280;3876;42.204;24.686;2023-02-03T07:47:14;100003.91;;;6.19;86.60
7668;BME280;3876;42.204;24.686;2023-02-03T07:49:41;100003.88;;;6.22;86.49
7668;BME280;3876;42.204;24.686;2023-02-03T07:52:08;100003.00;;;6.31;87.44
7668;BME280;3876;42.204;24.686;2023-02-03T07:54:35;100008.06;;;6.40;87.16
7668;BME280;3876;42.204;24.686;2023-02-03T07:57:02;100008.06;;;6.46;85.99
7668;BME280;3876;42.204;24.686;2023-02-03T07:59:29;99985.97;;;6.44;86.14
7668;BME280;3876;42.204;24.686;2023-02-03T08:01:55;100030.84;;;6.78;85.08
7668;BME280;3876;42.204;24.686;2023-02-03T08:04:23;100026.53;;;6.91;84.67
7668;BME280;3876;42.204;24.686;2023-02-03T08:06:50;100033.19;;;7.11;83.95
7668;BME280;3876;42.204;24.686;2023-02-03T08:09:17;100041.56;;;7.33;82.92
7668;BME280;3876;42.204;24.686;2023-02-03T08:11:44;100052.50;;;7.49;82.29
7668;BME280;3876;42.204;24.686;2023-02-03T08:14:11;100040.50;;;7.60;81.45
7668;BME280;3876;42.204;24.686;2023-02-03T08:16:37;100054.06;;;7.68;80.71
7668;BME280;3876;42.204;24.686;2023-02-03T08:19:04;100053.94;;;7.80;79.25
7668;BME280;3876;42.204;24.686;2023-02-03T08:21:32;100045.44;;;7.81;78.14
7668;BME280;3876;42.204;24.686;2023-02-03T08:23:59;100051.28;;;7.93;79.61
7668;BME280;3876;42.204;24.686;2023-02-03T08:26:26;100056.34;;;7.95;78.06
7668;BME280;3876;42.204;24.686;2023-02-03T08:28:53;100054.66;;;7.96;77.99
7668;BME280;3876;42.204;24.686;2023-02-03T08:31:19;100062.22;;;8.06;77.43
7668;BME280;3876;42.204;24.686;2023-02-03T08:33:46;100058.69;;;8.19;77.06
7668;BME280;3876;42.204;24.686;2023-02-03T08:36:13;100073.13;;;8.22;76.31
7668;BME280;3876;42.204;24.686;2023-02-03T08:38:41;100074.78;;;8.24;76.19
7668;BME280;3876;42.204;24.686;2023-02-03T08:41:09;100054.28;;;8.35;76.17
7668;BME280;3876;42.204;24.686;2023-02-03T08:43:36;100059.28;;;8.44;74.86
7668;BME280;3876;42.204;24.686;2023-02-03T08:46:04;100045.00;;;8.29;74.27
7668;BME280;3876;42.204;24.686;2023-02-03T08:48:31;100067.88;;;8.37;74.17
7668;BME280;3876;42.204;24.686;2023-02-03T08:50:58;100065.22;;;8.48;73.74
7668;BME280;3876;42.204;24.686;2023-02-03T08:53:25;100060.16;;;8.44;73.25
7668;BME280;3876;42.204;24.686;2023-02-03T08:55:53;100061.78;;;8.50;71.99
7668;BME280;3876;42.204;24.686;2023-02-03T08:58:20;100065.03;;;8.63;71.97
7668;BME280;3876;42.204;24.686;2023-02-03T09:00:47;100055.69;;;8.60;71.34
7668;BME280;3876;42.204;24.686;2023-02-03T09:03:14;100063.22;;;8.74;71.90
7668;BME280;3876;42.204;24.686;2023-02-03T09:05:41;100063.94;;;8.85;72.48
7668;BME280;3876;42.204;24.686;2023-02-03T09:08:08;100069.81;;;8.90;70.54
7668;BME280;3876;42.204;24.686;2023-02-03T09:10:35;100074.00;;;8.95;70.79
7668;BME280;3876;42.204;24.686;2023-02-03T09:13:04;100018.13;;;8.68;69.03
7668;BME280;3876;42.204;24.686;2023-02-03T09:15:30;100076.47;;;9.03;68.49
7668;BME280;3876;42.204;24.686;2023-02-03T09:17:57;100084.97;;;9.05;67.87
7668;BME280;3876;42.204;24.686;2023-02-03T09:20:24;100062.69;;;9.13;69.65
7668;BME280;3876;42.204;24.686;2023-02-03T09:22:51;100076.88;;;9.35;67.02
7668;BME280;3876;42.204;24.686;2023-02-03T09:25:19;100067.50;;;9.36;66.92
7668;BME280;3876;42.204;24.686;2023-02-03T09:27:46;100082.66;;;9.49;66.52
7668;BME280;3876;42.204;24.686;2023-02-03T09:30:14;100083.31;;;9.62;67.20
7668;BME280;3876;42.204;24.686;2023-02-03T09:32:41;100086.34;;;9.85;67.34
7668;BME280;3876;42.204;24.686;2023-02-03T09:35:08;100086.19;;;9.94;65.67
7668;BME280;3876;42.204;24.686;2023-02-03T09:37:35;100089.47;;;10.02;65.24
7668;BME280;3876;42.204;24.686;2023-02-03T09:40:02;100083.44;;;10.05;62.98
7668;BME280;3876;42.204;24.686;2023-02-03T09:42:54;100091.34;;;9.93;62.44
7668;BME280;3876;42.204;24.686;2023-02-03T09:45:25;100090.47;;;9.94;63.65
7668;BME280;3876;42.204;24.686;2023-02-03T09:47:53;100075.00;;;10.00;61.78
7668;BME280;3876;42.204;24.686;2023-02-03T09:50:24;100069.75;;;10.06;61.63
7668;BME280;3876;42.204;24.686;2023-02-03T09:52:53;100069.75;;;10.06;61.59
7668;BME280;3876;42.204;24.686;2023-02-03T09:55:29;100049.16;;;10.12;61.38
7668;BME280;3876;42.204;24.686;2023-02-03T09:58:03;100053.22;;;10.25;59.82
7668;BME280;3876;42.204;24.686;2023-02-03T10:00:34;100050.84;;;10.16;59.88
7668;BME280;3876;42.204;24.686;2023-02-03T10:03:06;100052.75;;;10.02;60.42
7668;BME280;3876;42.204;24.686;2023-02-03T10:06:01;100053.88;;;9.86;59.60
7668;BME280;3876;42.204;24.686;2023-02-03T10:08:42;100051.69;;;9.65;61.72
7668;BME280;3876;42.204;24.686;2023-02-03T10:11:24;100039.53;;;9.77;62.99
7668;BME280;3876;42.204;24.686;2023-02-03T10:14:03;100038.63;;;9.81;61.64
7668;BME280;3876;42.204;24.686;2023-02-03T10:16:44;100040.72;;;10.07;61.88
7668;BME280;3876;42.204;24.686;2023-02-03T10:19:18;100034.47;;;10.23;61.83
7668;BME280;3876;42.204;24.686;2023-02-03T10:21:48;100055.97;;;10.13;59.81
7668;BME280;3876;42.204;24.686;2023-02-03T10:24:21;100055.31;;;10.02;60.90
7668;BME280;3876;42.204;24.686;2023-02-03T10:26:51;100049.16;;;10.12;60.50
7668;BME280;3876;42.204;24.686;2023-02-03T10:29:20;100038.28;;;9.99;58.86
7668;BME280;3876;42.204;24.686;2023-02-03T10:31:53;100034.13;;;9.94;61.33
7668;BME280;3876;42.204;24.686;2023-02-03T10:34:23;100038.50;;;9.87;61.27
7668;BME280;3876;42.204;24.686;2023-02-03T10:36:55;100049.19;;;9.60;61.36
7668;BME280;3876;42.204;24.686;2023-02-03T10:39:31;100020.59;;;9.35;61.32
7668;BME280;3876;42.204;24.686;2023-02-03T10:41:59;100038.09;;;9.60;64.07
7668;BME280;3876;42.204;24.686;2023-02-03T10:44:32;100030.84;;;9.86;64.83
7668;BME280;3876;42.204;24.686;2023-02-03T10:47:16;100025.59;;;9.95;61.79
7668;BME280;3876;42.204;24.686;2023-02-03T10:49:46;100031.22;;;10.12;62.36
7668;BME280;3876;42.204;24.686;2023-02-03T10:52:25;100026.69;;;10.28;60.04
7668;BME280;3876;42.204;24.686;2023-02-03T10:54:52;100021.56;;;10.29;61.62
7668;BME280;3876;42.204;24.686;2023-02-03T10:57:20;100018.06;;;10.32;61.16
7668;BME280;3876;42.204;24.686;2023-02-03T10:59:48;100005.13;;;10.38;60.35
7668;BME280;3876;42.204;24.686;2023-02-03T11:02:24;100009.47;;;10.34;60.24
7668;BME280;3876;42.204;24.686;2023-02-03T11:05:16;100008.69;;;10.31;59.15
7668;BME280;3876;42.204;24.686;2023-02-03T11:07:44;99997.63;;;10.29;60.31
7668;BME280;3876;42.204;24.686;2023-02-03T11:10:33;99997.50;;;10.36;58.39
7668;BME280;3876;42.204;24.686;2023-02-03T11:13:18;99993.16;;;10.38;60.02
7668;BME280;3876;42.204;24.686;2023-02-03T11:15:57;99992.31;;;10.38;59.99
7668;BME280;3876;42.204;24.686;2023-02-03T11:18:50;99991.47;;;10.37;59.05
7668;BME280;3876;42.204;24.686;2023-02-03T11:21:19;99986.22;;;10.45;58.64
7668;BME280;3876;42.204;24.686;2023-02-03T11:23:53;99974.19;;;10.47;57.55
7668;BME280;3876;42.204;24.686;2023-02-03T11:26:24;99993.69;;;10.56;58.09
7668;BME280;3876;42.204;24.686;2023-02-03T11:28:55;99974.91;;;10.53;56.69
7668;BME280;3876;42.204;24.686;2023-02-03T11:31:24;99994.41;;;10.61;56.96
7668;BME280;3876;42.204;24.686;2023-02-03T11:33:56;99979.22;;;10.51;56.99
7668;BME280;3876;42.204;24.686;2023-02-03T11:36:28;99970.81;;;10.45;58.02
7668;BME280;3876;42.204;24.686;2023-02-03T11:39:10;99978.38;;;10.52;58.11
7668;BME280;3876;42.204;24.686;2023-02-03T11:41:38;99969.75;;;10.55;57.72
7668;BME280;3876;42.204;24.686;2023-02-03T11:44:14;99971.28;;;10.64;57.12
7668;BME280;3876;42.204;24.686;2023-02-03T11:46:42;99969.69;;;10.60;54.95
7668;BME280;3876;42.204;24.686;2023-02-03T11:49:24;99984.88;;;10.69;56.70
7668;BME280;3876;42.204;24.686;2023-02-03T11:52:02;99983.22;;;10.65;55.82
7668;BME280;3876;42.204;24.686;2023-02-03T11:54:36;99969.47;;;10.69;55.02
7668;BME280;3876;42.204;24.686;2023-02-03T11:57:24;99967.91;;;10.62;54.52
7668;BME280;3876;42.204;24.686;2023-02-03T12:00:02;99968.56;;;10.71;55.56
7668;BME280;3876;42.204;24.686;2023-02-03T12:02:58;99973.38;;;10.46;54.08
7668;BME280;3876;42.204;24.686;2023-02-03T12:08:34;99958.41;;;10.25;56.68
7668;BME280;3876;42.204;24.686;2023-02-03T12:11:11;99957.78;;;10.13;56.21
7668;BME280;3876;42.204;24.686;2023-02-03T12:14:14;99947.66;;;10.05;56.13
7668;BME280;3876;42.204;24.686;2023-02-03T12:17:03;99946.00;;;10.04;55.17
7668;BME280;3876;42.204;24.686;2023-02-03T12:19:44;99935.09;;;9.93;54.95
7668;BME280;3876;42.204;24.686;2023-02-03T12:22:25;99934.41;;;9.85;55.48
7668;BME280;3876;42.204;24.686;2023-02-03T12:24:59;99930.34;;;9.75;55.52
7668;BME280;3876;42.204;24.686;2023-02-03T12:27:39;99931.25;;;9.71;56.60
7668;BME280;3876;42.204;24.686;2023-02-03T12:30:11;99928.69;;;9.71;56.93
7668;BME280;3876;42.204;24.686;2023-02-03T12:32:44;99925.28;;;9.72;57.93
7668;BME280;3876;42.204;24.686;2023-02-03T12:35:17;99924.38;;;9.74;57.04
7668;BME280;3876;42.204;24.686;2023-02-03T12:37:54;99920.16;;;9.72;56.39
7668;BME280;3876;42.204;24.686;2023-02-03T12:40:28;99927.00;;;9.70;56.29
7668;BME280;3876;42.204;24.686;2023-02-03T12:43:11;99918.75;;;9.56;56.10
7668;BME280;3876;42.204;24.686;2023-02-03T12:45:50;99922.22;;;9.52;57.74
7668;BME280;3876;42.204;24.686;2023-02-03T12:48:21;99919.66;;;9.53;56.47
7668;BME280;3876;42.204;24.686;2023-02-03T12:50:52;99923.69;;;9.65;58.37
7668;BME280;3876;42.204;24.686;2023-02-03T12:53:23;99915.91;;;9.71;58.40
7668;BME280;3876;42.204;24.686;2023-02-03T12:55:57;99917.47;;;9.78;57.60
7668;BME280;3876;42.204;24.686;2023-02-03T12:58:29;99914.91;;;9.78;57.21
7668;BME280;3876;42.204;24.686;2023-02-03T13:00:59;99910.69;;;9.75;57.56
7668;BME280;3876;42.204;24.686;2023-02-03T13:03:35;99890.34;;;9.68;56.07
7668;BME280;3876;42.204;24.686;2023-02-03T13:06:07;99907.97;;;9.83;56.32
7668;BME280;3876;42.204;24.686;2023-02-03T13:08:41;99906.06;;;9.94;56.37
7668;BME280;3876;42.204;24.686;2023-02-03T13:11:18;99883.28;;;9.82;57.26
7668;BME280;3876;42.204;24.686;2023-02-03T13:13:49;99905.16;;;9.98;58.03
7668;BME280;3876;42.204;24.686;2023-02-03T13:16:27;99907.72;;;9.98;57.56
7668;BME280;3876;42.204;24.686;2023-02-03T13:18:58;99890.75;;;9.91;57.98
7668;BME280;3876;42.204;24.686;2023-02-03T13:21:28;99893.00;;;10.06;57.13
7668;BME280;3876;42.204;24.686;2023-02-03T13:23:56;99900.63;;;10.09;56.68
7668;BME280;3876;42.204;24.686;2023-02-03T13:26:56;99903.16;;;10.14;54.03
7668;BME280;3876;42.204;24.686;2023-02-03T13:29:45;99891.19;;;10.14;52.51
7668;BME280;3876;42.204;24.686;2023-02-03T13:32:28;99889.94;;;10.33;52.32
7668;BME280;3876;42.204;24.686;2023-02-03T13:35:15;99888.81;;;10.45;50.95
7668;BME280;3876;42.204;24.686;2023-02-03T13:38:23;99884.72;;;10.36;50.47
7668;BME280;3876;42.204;24.686;2023-02-03T13:41:00;99888.44;;;10.23;50.15
7668;BME280;3876;42.204;24.686;2023-02-03T13:43:31;99885.47;;;10.00;49.27